Time;durP1;ratioP1;P1;durP2;ratioP2;P2;SDS_P1;SDS_P2;PMS_P1;PMS_P2;Temp;Humidity;BMP_temperature;BMP_pressure;BME280_temperature;BME280_humidity;BME280_pressure;Samples;Min_cycle;Max_cycle;Signal;HPM_P1;HPM_P2
2021/07/10 00:02:12;;;;;;;1.50;1.27;;;;;;;17.91;86.80;100326.34;2771829;85;21046;-65
2021/07/10 00:06:15;;;;;;;5.22;1.95;;;;;;;17.89;86.93;100327.02;2772027;85;21555;-67
2021/07/10 00:10:19;;;;;;;3.35;1.30;;;;;;;17.86;86.90;100328.20;2771823;85;21542;-66
2021/07/10 00:14:22;;;;;;;1.47;1.32;;;;;;;17.83;87.38;100337.44;2771541;84;21069;-67
2021/07/10 00:18:24;;;;;;;4.03;1.65;;;;;;;17.84;87.28;100339.12;2771696;85;21524;-64
2021/07/10 00:22:25;;;;;;;2.55;1.22;;;;;;;17.89;87.45;100341.82;2771950;85;21045;-67
2021/07/10 00:26:27;;;;;;;1.37;1.27;;;;;;;17.91;87.30;100340.62;2772034;85;20989;-66
2021/07/10 00:30:30;;;;;;;6.67;1.35;;;;;;;17.96;87.03;100347.66;2771945;85;20998;-65
2021/07/10 00:34:33;;;;;;;1.07;0.72;;;;;;;17.97;86.79;100345.82;2771546;85;21057;-65
2021/07/10 00:38:35;;;;;;;1.55;1.20;;;;;;;17.97;86.84;100335.05;2771927;85;21058;-65
2021/07/10 00:42:38;;;;;;;3.70;1.22;;;;;;;18.00;87.01;100332.02;2771606;84;21557;-66
2021/07/10 00:46:41;;;;;;;1.27;1.17;;;;;;;18.05;86.67;100330.19;2771102;84;21054;-66
2021/07/10 00:50:45;;;;;;;2.55;0.90;;;;;;;18.09;87.16;100333.71;2769492;84;21028;-65
2021/07/10 00:54:47;;;;;;;2.72;1.45;;;;;;;18.10;86.83;100323.27;2771340;85;21015;-65
2021/07/10 00:58:50;;;;;;;1.17;1.07;;;;;;;18.15;86.77;100320.56;2769777;85;21011;-67
2021/07/10 01:02:54;;;;;;;1.27;1.00;;;;;;;18.18;86.64;100316.16;2769116;85;20996;-66
2021/07/10 01:06:56;;;;;;;1.05;0.95;;;;;;;18.22;86.23;100319.69;2770901;85;21082;-66
2021/07/10 01:10:59;;;;;;;1.42;0.90;;;;;;;18.23;86.21;100322.70;2771835;85;21050;-66
2021/07/10 01:15:01;;;;;;;8.00;1.10;;;;;;;18.24;86.58;100331.11;2771504;85;21059;-66
2021/07/10 01:19:04;;;;;;;1.37;1.17;;;;;;;18.25;86.24;100323.86;2771937;85;21050;-65
2021/07/10 01:23:06;;;;;;;1.50;0.85;;;;;;;18.26;86.29;100325.54;2771608;85;21642;-66
2021/07/10 01:27:08;;;;;;;1.52;1.35;;;;;;;18.24;86.28;100320.84;2771960;85;21010;-67
2021/07/10 01:31:10;;;;;;;1.00;0.93;;;;;;;18.25;86.33;100319.82;2771720;85;21870;-64
2021/07/10 01:35:13;;;;;;;1.12;0.98;;;;;;;18.25;86.31;100326.06;2771491;85;21020;-66
2021/07/10 01:39:15;;;;;;;1.80;0.88;;;;;;;18.23;85.87;100317.81;2771495;84;21529;-64
2021/07/10 01:43:18;;;;;;;1.50;1.17;;;;;;;18.22;86.00;100340.38;2770199;85;21035;-66
2021/07/10 01:47:20;;;;;;;1.37;1.27;;;;;;;18.24;85.91;100341.03;2772383;84;21062;-65
2021/07/10 01:51:22;;;;;;;3.35;1.32;;;;;;;18.23;86.03;100346.08;2789534;84;21050;-66
2021/07/10 01:55:24;;;;;;;1.20;0.95;;;;;;;18.23;86.05;100346.94;2787523;84;20956;-65
2021/07/10 01:59:27;;;;;;;3.92;1.20;;;;;;;18.26;86.00;100342.55;2787647;85;21055;-66
2021/07/10 02:03:29;;;;;;;1.87;1.47;;;;;;;18.28;86.29;100351.81;2787668;85;20998;-64
2021/07/10 02:07:31;;;;;;;4.08;1.50;;;;;;;18.22;85.74;100352.48;2787500;85;21069;-66
2021/07/10 02:11:33;;;;;;;1.95;1.75;;;;;;;18.23;86.31;100366.27;2787629;85;21066;-65
2021/07/10 02:15:35;;;;;;;2.05;1.95;;;;;;;18.20;86.29;100374.21;2786899;85;21046;-64
2021/07/10 02:19:38;;;;;;;5.03;2.37;;;;;;;18.24;86.78;100382.76;2787547;85;22161;-66
2021/07/10 02:23:41;;;;;;;4.72;2.45;;;;;;;18.27;86.49;100381.06;2787583;85;21577;-65
2021/07/10 02:27:43;;;;;;;1.35;1.25;;;;;;;18.23;86.28;100382.42;2787343;85;20990;-65
2021/07/10 02:31:45;;;;;;;3.67;2.02;;;;;;;18.22;86.34;100387.48;2787437;85;21106;-65
2021/07/10 02:35:49;;;;;;;2.37;2.10;;;;;;;18.24;86.38;100390.84;2787279;85;21118;-65
2021/07/10 02:39:52;;;;;;;3.42;2.17;;;;;;;18.24;86.66;100392.19;2787437;85;20995;-65
2021/07/10 02:43:55;;;;;;;2.52;1.85;;;;;;;18.21;86.23;100393.88;2787376;84;21924;-67
2021/07/10 02:47:57;;;;;;;2.33;2.08;;;;;;;18.18;86.09;100399.13;2787185;85;21003;-65
2021/07/10 02:51:59;;;;;;;4.95;1.80;;;;;;;18.15;86.65;100397.28;2787684;85;20991;-66
2021/07/10 02:56:01;;;;;;;2.27;2.08;;;;;;;18.15;86.56;100391.38;2787553;85;21003;-66
2021/07/10 03:00:11;;;;;;;3.22;1.77;;;;;;;18.12;86.56;100396.61;2787237;85;21062;-66
2021/07/10 03:04:13;;;;;;;2.33;2.22;;;;;;;18.09;86.44;100401.00;2787471;85;20991;-66
2021/07/10 03:08:17;;;;;;;3.27;2.85;;;;;;;18.08;86.64;100406.55;2787368;85;20963;-67
2021/07/10 03:12:20;;;;;;;;;;;;;;;18.07;86.84;100415.63;2790726;85;21532;-67
2021/07/10 03:16:22;;;;;;;4.08;2.85;;;;;;;18.07;86.63;100414.28;2787041;84;20128;-66
2021/07/10 03:20:25;;;;;;;2.50;2.27;;;;;;;18.06;87.05;100418.81;2787691;85;21026;-67
2021/07/10 03:24:27;;;;;;;3.60;2.72;;;;;;;18.07;87.08;100418.32;2787833;84;21023;-66
2021/07/10 03:28:29;;;;;;;2.50;2.30;;;;;;;18.06;86.62;100428.23;2787834;84;21046;-66
2021/07/10 03:32:36;;;;;;;3.80;2.27;;;;;;;18.03;87.18;100432.62;2787815;85;20987;-66
2021/07/10 03:36:40;;;;;;;3.27;2.47;;;;;;;18.06;87.26;100441.69;2787690;84;20983;-66
2021/07/10 03:40:42;;;;;;;2.87;2.67;;;;;;;18.12;87.35;100443.72;2787868;85;21063;-66
2021/07/10 03:44:44;;;;;;;2.87;2.67;;;;;;;18.20;86.99;100444.70;2787593;84;21007;-66
2021/07/10 03:48:45;;;;;;;2.42;2.22;;;;;;;18.25;86.87;100452.60;2787672;84;21109;-65
2021/07/10 03:52:48;;;;;;;3.17;2.62;;;;;;;18.26;86.88;100447.55;2787773;84;21046;-66
2021/07/10 03:56:52;;;;;;;3.50;2.58;;;;;;;18.32;86.96;100451.41;2787761;85;21866;-67
2021/07/10 04:00:54;;;;;;;3.40;2.12;;;;;;;18.37;86.73;100449.52;2787790;85;21086;-66
2021/07/10 04:04:56;;;;;;;2.85;2.58;;;;;;;18.40;86.59;100451.38;2787690;85;21043;-66
2021/07/10 04:08:59;;;;;;;2.58;2.20;;;;;;;18.45;86.12;100443.27;2787746;85;21075;-67
2021/07/10 04:13:01;;;;;;;3.42;2.90;;;;;;;18.52;86.42;100445.62;2787903;85;21059;-66
2021/07/10 04:17:05;;;;;;;2.47;2.27;;;;;;;18.56;86.09;100444.25;2787805;85;21062;-66
2021/07/10 04:21:07;;;;;;;3.27;2.50;;;;;;;18.60;86.29;100449.61;2787637;85;20991;-66
2021/07/10 04:25:13;;;;;;;4.12;2.12;;;;;;;18.65;86.05;100443.19;2787876;85;21026;-65
2021/07/10 04:29:19;;;;;;;3.05;2.40;;;;;;;18.69;86.01;100435.11;2787966;83;21018;-65
2021/07/10 04:33:21;;;;;;;3.72;2.17;;;;;;;18.76;85.24;100437.09;2788140;85;21074;-65
2021/07/10 04:37:23;;;;;;;2.67;2.30;;;;;;;18.79;85.41;100443.47;2787691;85;21630;-66
2021/07/10 04:41:25;;;;;;;6.40;2.20;;;;;;;18.81;85.00;100449.52;2788070;85;21027;-67
2021/07/10 04:45:28;;;;;;;4.45;2.47;;;;;;;18.82;84.55;100448.50;2788170;85;21014;-66
2021/07/10 04:49:30;;;;;;;2.62;2.10;;;;;;;18.87;85.26;100452.88;2781067;85;21043;-65
2021/07/10 04:53:31;;;;;;;1.40;1.30;;;;;;;18.91;84.11;100443.42;2769546;86;21066;-66
2021/07/10 04:57:35;;;;;;;2.27;1.62;;;;;;;18.92;84.16;100453.18;2769613;86;20996;-65
2021/07/10 05:01:37;;;;;;;4.33;1.75;;;;;;;18.94;83.79;100463.27;2769596;85;21042;-65
2021/07/10 05:05:40;;;;;;;2.22;2.02;;;;;;;18.96;83.57;100470.67;2769467;86;21064;-66
2021/07/10 05:09:42;;;;;;;2.37;2.08;;;;;;;19.04;84.34;100471.17;2769774;86;21035;-66
2021/07/10 05:13:44;;;;;;;1.45;1.35;;;;;;;19.18;83.15;100473.61;2770111;85;21126;-66
2021/07/10 05:17:53;;;;;;;3.55;1.80;;;;;;;19.30;83.19;100475.38;2771871;85;21014;-65
2021/07/10 05:21:55;;;;;;;2.33;2.12;;;;;;;19.47;82.85;100469.88;2771780;84;21026;-66
2021/07/10 05:25:59;;;;;;;2.35;2.15;;;;;;;19.65;82.57;100475.81;2770779;85;21022;-66
2021/07/10 05:30:01;;;;;;;3.75;1.55;;;;;;;19.86;81.82;100473.46;2772239;85;21031;-66
2021/07/10 05:34:03;;;;;;;4.12;1.62;;;;;;;19.92;80.80;100480.84;2771943;85;21003;-64
2021/07/10 05:38:09;;;;;;;1.55;1.40;;;;;;;19.97;79.75;100482.48;2771568;85;32106;-66
2021/07/10 05:42:11;;;;;;;3.75;2.05;;;;;;;19.96;79.99;100476.75;2771999;84;21057;-64
2021/07/10 05:46:16;;;;;;;1.22;1.12;;;;;;;20.06;80.04;100480.05;2771767;85;21091;-64
2021/07/10 05:50:20;;;;;;;1.70;1.15;;;;;;;20.17;79.32;100480.11;2771643;83;20999;-66
2021/07/10 05:54:23;;;;;;;3.00;2.05;;;;;;;20.29;78.90;100486.39;2772266;85;21054;-65
2021/07/10 05:58:26;;;;;;;2.15;1.70;;;;;;;20.44;79.96;100475.58;2771714;84;21062;-66
2021/07/10 06:02:30;;;;;;;2.10;1.70;;;;;;;20.69;78.92;100478.33;2772303;85;21029;-66
2021/07/10 06:06:33;;;;;;;3.58;1.85;;;;;;;21.29;78.23;100476.02;2771592;85;20976;-67
2021/07/10 06:10:35;;;;;;;1.95;1.45;;;;;;;22.21;75.11;100468.63;2772813;85;21485;-65
2021/07/10 06:14:38;;;;;;;1.95;1.67;;;;;;;22.68;73.73;100468.88;2772709;84;21113;-66
2021/07/10 06:18:41;;;;;;;2.52;1.55;;;;;;;22.87;71.82;100476.80;2772409;85;21576;-65
2021/07/10 06:22:47;;;;;;;3.22;1.45;;;;;;;22.83;70.85;100481.78;2773221;85;21026;-65
2021/07/10 06:26:53;;;;;;;1.67;1.22;;;;;;;22.88;72.43;100488.47;2772951;85;21058;-65
2021/07/10 06:30:57;;;;;;;1.60;1.40;;;;;;;22.83;71.33;100488.56;2773228;84;21047;-63
2021/07/10 06:35:01;;;;;;;3.13;1.40;;;;;;;22.76;71.03;100481.44;2773306;85;21023;-64
2021/07/10 06:39:04;;;;;;;1.50;1.32;;;;;;;22.59;71.60;100485.83;2772995;84;20995;-64
2021/07/10 06:43:07;;;;;;;1.47;1.37;;;;;;;22.55;71.24;100480.50;2772744;84;20988;-63
2021/07/10 06:47:10;;;;;;;1.52;1.42;;;;;;;22.75;70.37;100478.41;2773091;85;21022;-66
2021/07/10 06:51:14;;;;;;;1.47;1.37;;;;;;;23.13;69.49;100481.17;2784974;84;21102;-64
2021/07/10 06:55:17;;;;;;;1.92;1.72;;;;;;;23.61;69.36;100476.99;2790036;83;21524;-64
2021/07/10 06:59:24;;;;;;;6.37;1.45;;;;;;;24.16;68.22;100472.39;2790961;85;21023;-64
2021/07/10 07:03:28;;;;;;;2.90;1.12;;;;;;;24.45;66.05;100472.97;2789887;83;21121;-65
2021/07/10 07:07:31;;;;;;;1.00;0.90;;;;;;;24.68;65.70;100474.66;2791694;85;20963;-63
2021/07/10 07:11:33;;;;;;;1.35;1.10;;;;;;;24.82;63.93;100473.30;2791441;83;21002;-66
2021/07/10 07:15:34;;;;;;;1.40;1.15;;;;;;;24.95;64.08;100469.67;2789919;83;21074;-66
2021/07/10 07:19:36;;;;;;;1.70;1.02;;;;;;;24.98;61.96;100479.30;2792033;85;21516;-68
2021/07/10 07:23:38;;;;;;;1.75;1.10;;;;;;;24.76;62.19;100482.30;2791406;83;20995;-66
2021/07/10 07:27:41;;;;;;;1.70;1.12;;;;;;;24.74;61.98;100473.48;2790145;84;21049;-65
2021/07/10 07:31:44;;;;;;;1.57;1.32;;;;;;;24.84;61.07;100479.86;2790690;83;20996;-64
2021/07/10 07:35:46;;;;;;;1.77;1.27;;;;;;;24.90;60.16;100481.19;2760919;85;21003;-65
2021/07/10 07:39:47;;;;;;;1.52;0.88;;;;;;;24.95;60.96;100481.37;2790393;84;21025;-65
2021/07/10 07:43:50;;;;;;;1.45;0.75;;;;;;;24.97;60.59;100474.37;2791180;83;21022;-66
2021/07/10 07:47:52;;;;;;;0.80;0.60;;;;;;;24.84;57.33;100487.51;2788470;84;21016;-65
2021/07/10 07:51:54;;;;;;;1.07;0.93;;;;;;;24.74;59.93;100484.36;2798659;83;21002;-70
2021/07/10 07:55:56;;;;;;;2.00;1.62;;;;;;;24.76;60.50;100476.86;2807668;84;21010;-65
2021/07/10 07:59:58;;;;;;;1.32;0.80;;;;;;;24.99;60.47;100483.69;2806541;84;21015;-65
2021/07/10 08:03:59;;;;;;;1.90;0.75;;;;;;;25.16;59.49;100476.69;2807549;83;21010;-66
2021/07/10 08:08:01;;;;;;;0.88;0.60;;;;;;;25.31;57.28;100479.61;2806854;84;21073;-67
2021/07/10 08:12:04;;;;;;;0.82;0.60;;;;;;;25.24;57.60;100483.22;2807193;83;21061;-66
2021/07/10 08:16:09;;;;;;;1.37;0.70;;;;;;;25.20;57.43;100471.11;2808542;83;21094;-66
2021/07/10 08:20:12;;;;;;;1.80;0.90;;;;;;;25.39;59.42;100476.10;2807059;83;21050;-64
2021/07/10 08:24:15;;;;;;;2.85;1.27;;;;;;;25.43;57.29;100479.23;2808767;83;21041;-65
2021/07/10 08:28:17;;;;;;;1.42;0.70;;;;;;;25.46;58.61;100482.05;2807975;83;21014;-66
2021/07/10 08:32:20;;;;;;;1.20;0.82;;;;;;;25.46;57.21;100485.59;2807333;83;21010;-64
2021/07/10 08:36:22;;;;;;;2.10;1.00;;;;;;;25.53;58.61;100489.67;2807902;84;21089;-64
2021/07/10 08:40:24;;;;;;;1.75;1.10;;;;;;;25.68;58.23;100489.34;2809171;84;21331;-66
2021/07/10 08:44:27;;;;;;;1.00;0.70;;;;;;;25.74;58.56;100485.72;2808808;84;20950;-63
2021/07/10 08:48:35;;;;;;;2.83;1.05;;;;;;;25.78;56.77;100483.39;2809295;84;21041;-65
2021/07/10 08:52:37;;;;;;;2.55;0.88;;;;;;;25.76;57.54;100480.91;2780327;83;21007;-63
2021/07/10 08:56:40;;;;;;;1.35;0.85;;;;;;;25.73;57.84;100475.88;2774285;85;21011;-63
2021/07/10 09:00:42;;;;;;;1.22;0.47;;;;;;;25.74;58.32;100482.99;2773925;85;21011;-66
2021/07/10 09:04:44;;;;;;;1.98;0.80;;;;;;;25.86;58.07;100486.37;2774124;85;21047;-66
2021/07/10 09:08:57;;;;;;;2.22;1.20;;;;;;;25.95;58.31;100470.87;2773597;85;21071;-64
2021/07/10 09:13:01;;;;;;;1.47;1.00;;;;;;;26.03;57.49;100469.76;2728845;86;21062;-64
2021/07/10 09:17:19;;;;;;;1.15;0.50;;;;;;;26.02;57.88;100468.09;2735238;85;21075;-64
2021/07/10 09:21:50;;;;;;;1.20;0.50;;;;;;;26.09;59.61;100474.30;2773963;85;20960;-65
2021/07/10 09:25:53;;;;;;;3.30;1.37;;;;;;;26.04;55.93;100476.88;2773051;85;21035;-66
2021/07/10 09:29:55;;;;;;;1.30;1.20;;;;;;;25.96;56.83;100475.81;2774237;85;21122;-63
2021/07/10 09:34:09;;;;;;;2.27;1.72;;;;;;;25.90;57.44;100467.15;2773893;85;21539;-63
2021/07/10 09:38:23;;;;;;;1.35;0.90;;;;;;;25.99;57.98;100460.89;2773819;85;21076;-63
2021/07/10 09:42:40;;;;;;;3.85;1.47;;;;;;;26.02;57.36;100459.92;2774813;84;20997;-64
2021/07/10 09:46:45;;;;;;;2.33;1.37;;;;;;;26.12;58.83;100462.12;2774852;84;21863;-65
2021/07/10 09:50:47;;;;;;;5.20;2.80;;;;;;;26.12;57.44;100465.37;2788819;84;21025;-65
2021/07/10 09:54:53;;;;;;;2.27;0.93;;;;;;;25.97;56.83;100465.73;2800243;83;21007;-66
2021/07/10 09:58:56;;;;;;;1.67;1.07;;;;;;;25.95;56.79;100456.44;2789791;83;21038;-63
2021/07/10 10:02:58;;;;;;;2.35;1.17;;;;;;;26.06;59.07;100462.49;2792408;83;21043;-66
2021/07/10 10:07:04;;;;;;;3.62;1.92;;;;;;;25.95;56.22;100461.34;2792321;83;20994;-64
2021/07/10 10:11:06;;;;;;;4.05;2.17;;;;;;;25.76;58.82;100453.66;2772994;83;21042;-67
2021/07/10 10:15:09;;;;;;;2.55;1.35;;;;;;;25.90;58.39;100456.25;2786126;83;21042;-63
2021/07/10 10:19:15;;;;;;;2.65;1.70;;;;;;;25.95;58.69;100450.98;2791109;83;21520;-64
2021/07/10 10:23:18;;;;;;;;;;;;;;;25.99;59.13;100458.16;2794203;83;20951;-63
2021/07/10 10:27:22;;;;;;;6.17;2.08;;;;;;;26.02;58.32;100454.98;2791142;83;20402;-65
2021/07/10 10:31:24;;;;;;;5.92;2.35;;;;;;;26.04;58.42;100456.95;2791381;83;21010;-63
2021/07/10 10:35:26;;;;;;;5.08;2.00;;;;;;;25.94;60.02;100462.91;2791750;83;20999;-64
2021/07/10 10:39:36;;;;;;;5.72;2.75;;;;;;;26.16;60.08;100459.80;2791986;83;21626;-63
2021/07/10 10:43:39;;;;;;;3.25;1.77;;;;;;;26.24;56.68;100464.97;2790559;83;21014;-64
2021/07/10 10:47:52;;;;;;;1.90;1.67;;;;;;;26.26;56.63;100460.13;2792468;85;21062;-65
2021/07/10 10:51:54;;;;;;;2.83;1.70;;;;;;;26.14;55.42;100456.44;2781271;83;21067;-65
2021/07/10 10:55:55;;;;;;;;;;;;;;;26.19;56.26;100458.83;2777541;85;21051;-64
2021/07/10 10:59:59;;;;;;;3.75;3.10;;;;;;;26.28;56.86;100455.27;2774004;85;20129;-66
2021/07/10 11:04:00;;;;;;;6.15;2.15;;;;;;;26.29;56.23;100454.22;2775060;85;21022;-62
2021/07/10 11:08:25;;;;;;;7.85;3.08;;;;;;;26.12;55.48;100449.02;2774092;85;21860;-63
2021/07/10 11:12:53;;;;;;;2.22;1.77;;;;;;;25.87;57.36;100458.06;2766402;85;21028;-62
2021/07/10 11:17:09;;;;;;;2.58;1.80;;;;;;;26.07;59.18;100451.89;2746202;86;21088;-61
2021/07/10 11:21:10;;;;;;;2.55;2.35;;;;;;;26.44;57.43;100448.41;2753132;86;21080;-64
2021/07/10 11:25:13;;;;;;;2.22;2.12;;;;;;;26.65;56.06;100450.36;2760668;85;21010;-63
2021/07/10 11:29:28;;;;;;;4.80;2.92;;;;;;;26.92;55.61;100453.61;2774796;85;20994;-64
2021/07/10 11:34:01;;;;;;;12.00;2.05;;;;;;;27.03;56.65;100451.98;2774882;85;21210;-62
2021/07/10 11:38:04;;;;;;;1.60;1.50;;;;;;;26.94;54.88;100446.53;2774141;85;21109;-63
2021/07/10 11:42:28;;;;;;;2.40;2.20;;;;;;;26.86;55.52;100447.69;2768785;85;21060;-63
2021/07/10 11:46:59;;;;;;;2.10;1.90;;;;;;;26.94;55.25;100431.01;2762917;84;21047;-65
2021/07/10 11:51:08;;;;;;;2.15;1.95;;;;;;;26.92;56.07;100435.88;2772794;83;21024;-62
2021/07/10 11:55:12;;;;;;;3.70;2.02;;;;;;;27.01;56.00;100432.25;2774479;84;21006;-66
2021/07/10 11:59:17;;;;;;;2.40;2.00;;;;;;;27.04;53.70;100437.80;2769870;84;21003;-64
2021/07/10 12:03:32;;;;;;;3.70;2.45;;;;;;;27.09;55.37;100435.19;2774323;85;21026;-63
2021/07/10 12:07:51;;;;;;;3.35;2.15;;;;;;;27.03;54.26;100430.67;2772638;84;21023;-63
2021/07/10 12:11:53;;;;;;;2.45;2.10;;;;;;;26.66;55.28;100430.20;2774268;84;21476;-62
2021/07/10 12:21:32;;;;;;;2.12;1.92;;;;;;;26.82;54.21;100425.99;2775644;85;21058;-63
2021/07/10 12:26:12;;;;;;;2.05;1.85;;;;;;;27.09;53.35;100431.94;2775564;85;21030;-63
2021/07/10 12:30:17;;;;;;;2.08;1.92;;;;;;;27.28;53.64;100425.05;2742188;85;21026;-65
2021/07/10 12:34:53;;;;;;;2.72;2.25;;;;;;;27.62;54.94;100424.53;2730084;86;20988;-66
2021/07/10 12:39:15;;;;;;;2.62;1.90;;;;;;;27.74;51.31;100418.55;2730256;86;21075;-63
2021/07/10 12:43:25;;;;;;;2.25;2.02;;;;;;;27.64;51.00;100424.61;2730342;87;21019;-63
2021/07/10 12:47:29;;;;;;;2.17;1.98;;;;;;;27.72;53.28;100428.89;2729706;86;21012;-66
2021/07/10 12:51:57;;;;;;;3.50;1.92;;;;;;;27.96;52.40;100419.31;2741069;84;21127;-65
2021/07/10 12:56:25;;;;;;;4.20;1.80;;;;;;;28.19;51.59;100410.81;2691048;88;21108;-68
2021/07/10 13:00:31;;;;;;;2.47;1.98;;;;;;;28.03;50.39;100418.64;2612038;90;21076;-65
2021/07/10 13:04:34;;;;;;;3.33;1.82;;;;;;;27.89;52.44;100417.22;2602511;91;21109;-64
2021/07/10 13:08:37;;;;;;;1.42;1.25;;;;;;;27.82;52.28;100411.91;2628333;90;21067;-65
2021/07/10 13:12:49;;;;;;;1.82;1.65;;;;;;;27.84;53.65;100414.38;2603089;90;21058;-64
2021/07/10 13:16:53;;;;;;;3.15;1.67;;;;;;;28.03;53.86;100402.80;2666933;89;21652;-64
2021/07/10 13:21:14;;;;;;;2.62;2.00;;;;;;;28.22;53.42;100408.96;2675240;88;21254;-66
2021/07/10 13:25:13;;;;;;;2.12;1.77;;;;;;;28.48;51.02;100401.27;2644911;90;21098;-63
2021/07/10 13:29:17;;;;;;;3.08;2.40;;;;;;;28.31;49.33;100402.06;2680679;87;21067;-64
2021/07/10 13:33:34;;;;;;;3.58;2.08;;;;;;;27.94;51.12;100399.05;2700180;87;21040;-65
2021/07/10 13:37:38;;;;;;;3.02;1.87;;;;;;;27.75;51.39;100395.62;2712833;86;21099;-63
2021/07/10 13:42:03;;;;;;;3.97;2.80;;;;;;;27.95;50.88;100387.59;2714149;87;21063;-62
2021/07/10 13:46:12;;;;;;;3.43;2.97;;;;;;;28.17;50.49;100388.36;2713437;86;21031;-64
2021/07/10 13:50:13;;;;;;;1.98;1.47;;;;;;;28.22;51.33;100383.83;2652876;89;21133;-62
2021/07/10 13:54:39;;;;;;;2.85;1.42;;;;;;;28.39;50.65;100384.41;2716139;86;21070;-63
2021/07/10 13:58:58;;;;;;;2.15;1.95;;;;;;;28.25;50.82;100389.89;2699525;87;21055;-63
2021/07/10 14:03:05;;;;;;;2.17;1.60;;;;;;;27.82;51.33;100380.47;2715470;87;21062;-63
2021/07/10 14:07:07;;;;;;;2.08;1.92;;;;;;;27.76;50.75;100369.95;2713151;87;21069;-64
2021/07/10 14:11:12;;;;;;;5.85;2.17;;;;;;;27.89;50.86;100381.17;2710507;87;21067;-64
2021/07/10 14:15:26;;;;;;;2.75;2.05;;;;;;;28.13;50.15;100382.49;2676150;87;21073;-63
2021/07/10 14:19:28;;;;;;;4.77;2.60;;;;;;;28.33;50.42;100386.76;2680429;86;21019;-64
2021/07/10 14:23:30;;;;;;;5.83;2.05;;;;;;;28.36;50.54;100374.81;2715634;87;21397;-63
2021/07/10 14:27:33;;;;;;;2.33;1.55;;;;;;;28.59;50.27;100384.00;2695456;87;21285;-64
2021/07/10 14:31:34;;;;;;;2.12;1.85;;;;;;;28.79;47.75;100374.52;2720442;87;21067;-63
2021/07/10 14:35:40;;;;;;;2.55;1.20;;;;;;;28.67;48.78;100377.83;2720036;87;21110;-65
2021/07/10 14:39:44;;;;;;;1.98;1.42;;;;;;;28.46;47.53;100373.34;2719691;87;21059;-64
2021/07/10 14:43:45;;;;;;;2.47;2.15;;;;;;;28.44;46.83;100373.59;2720055;87;21030;-63
2021/07/10 14:47:48;;;;;;;2.45;2.12;;;;;;;28.27;49.49;100376.24;2720225;87;21009;-64
2021/07/10 14:51:51;;;;;;;2.50;2.10;;;;;;;28.05;49.89;100371.39;2720499;87;21050;-63
2021/07/10 14:55:56;;;;;;;2.90;1.87;;;;;;;27.91;51.58;100368.09;2716520;86;21050;-63
2021/07/10 14:59:58;;;;;;;5.42;2.02;;;;;;;28.16;52.78;100362.09;2716317;87;21069;-63
2021/07/10 15:04:03;;;;;;;1.90;1.70;;;;;;;28.47;49.97;100353.95;2715580;86;21061;-64
2021/07/10 15:08:06;;;;;;;1.67;1.25;;;;;;;28.45;49.66;100347.91;2715550;87;21105;-64
2021/07/10 15:12:32;;;;;;;9.17;3.00;;;;;;;28.43;48.34;100348.69;2715706;87;21081;-65
2021/07/10 15:16:38;;;;;;;1.40;1.30;;;;;;;28.48;49.48;100345.20;2716083;86;21069;-64
2021/07/10 15:20:40;;;;;;;4.28;2.20;;;;;;;28.60;48.12;100345.17;2716336;86;21057;-64
2021/07/10 15:24:56;;;;;;;2.58;1.60;;;;;;;28.65;48.65;100344.70;2716338;87;21029;-62
2021/07/10 15:29:02;;;;;;;2.00;1.62;;;;;;;28.73;49.57;100332.53;2715915;86;21104;-64
2021/07/10 15:33:04;;;;;;;2.30;1.72;;;;;;;28.84;48.31;100331.39;2716264;87;21029;-64
2021/07/10 15:37:13;;;;;;;2.02;1.82;;;;;;;28.55;48.36;100339.06;2715864;86;20993;-63
2021/07/10 15:41:15;;;;;;;5.75;2.67;;;;;;;28.34;48.02;100335.09;2716275;86;21077;-62
2021/07/10 15:45:23;;;;;;;1.85;1.70;;;;;;;28.22;48.02;100330.50;2716224;86;21029;-64
2021/07/10 15:49:27;;;;;;;3.75;2.15;;;;;;;27.97;48.83;100329.41;2716623;87;21060;-62
2021/07/10 15:53:29;;;;;;;3.00;2.45;;;;;;;27.94;50.51;100327.16;2717024;86;21025;-63
2021/07/10 15:57:32;;;;;;;2.25;2.05;;;;;;;28.02;50.48;100328.69;2720466;86;21100;-62
2021/07/10 16:01:34;;;;;;;2.40;2.15;;;;;;;28.16;48.50;100327.91;2720973;87;21012;-63
2021/07/10 16:05:36;;;;;;;2.42;1.95;;;;;;;28.15;49.81;100323.48;2720764;86;21037;-64
2021/07/10 16:09:38;;;;;;;2.52;1.62;;;;;;;28.08;50.56;100324.43;2720893;86;21029;-62
2021/07/10 16:13:46;;;;;;;3.90;2.10;;;;;;;28.20;47.92;100318.98;2720644;86;21097;-62
2021/07/10 16:17:54;;;;;;;1.67;1.57;;;;;;;28.42;47.49;100316.09;2720778;86;21092;-64
2021/07/10 16:21:56;;;;;;;2.35;2.15;;;;;;;28.55;46.94;100310.86;2720443;87;21084;-62
2021/07/10 16:26:03;;;;;;;2.12;1.37;;;;;;;28.60;48.71;100304.95;2720428;87;21034;-63
2021/07/10 16:30:27;;;;;;;2.02;1.70;;;;;;;28.60;47.30;100309.61;2720275;86;21104;-63
2021/07/10 16:34:38;;;;;;;6.42;2.40;;;;;;;28.50;48.42;100303.41;2710424;88;21062;-63
2021/07/10 16:38:40;;;;;;;1.45;1.17;;;;;;;28.44;47.40;100308.47;2666993;89;21048;-63
2021/07/10 16:42:43;;;;;;;3.30;2.27;;;;;;;28.33;46.64;100301.45;2665895;89;21076;-62
2021/07/10 16:46:54;;;;;;;2.52;1.10;;;;;;;28.27;47.66;100304.33;2710033;88;22474;-63
2021/07/10 16:50:59;;;;;;;1.90;1.50;;;;;;;28.15;47.01;100304.34;2666999;89;21071;-63
2021/07/10 16:55:08;;;;;;;1.95;1.57;;;;;;;27.99;47.80;100301.30;2665305;89;21041;-63
2021/07/10 16:59:13;;;;;;;3.05;1.87;;;;;;;27.85;46.66;100302.63;2710184;88;21054;-62
2021/07/10 17:03:21;;;;;;;3.72;1.98;;;;;;;27.74;47.61;100308.41;2667388;89;21067;-63
2021/07/10 17:07:23;;;;;;;2.22;1.80;;;;;;;27.63;47.77;100305.98;2665501;89;21089;-64
2021/07/10 17:11:28;;;;;;;1.67;1.52;;;;;;;27.51;48.16;100312.80;2710357;88;21015;-63
2021/07/10 17:21:05;;;;;;;2.00;1.62;;;;;;;27.29;48.23;100319.38;2665793;89;21041;-63
2021/07/10 17:25:47;;;;;;;2.35;1.80;;;;;;;27.18;48.85;100324.61;2710932;88;21062;-62
2021/07/10 17:29:49;;;;;;;3.22;2.10;;;;;;;27.14;49.21;100327.52;2667515;89;21052;-62
2021/07/10 17:39:16;;;;;;;2.25;2.05;;;;;;;26.99;49.30;100327.12;2710187;88;21038;-63
2021/07/10 17:43:18;;;;;;;2.22;2.02;;;;;;;26.90;51.48;100328.81;2710789;87;21090;-64
2021/07/10 17:47:57;;;;;;;1.52;1.42;;;;;;;26.85;52.41;100319.14;2710437;88;21018;-63
2021/07/10 17:51:59;;;;;;;1.98;1.70;;;;;;;26.76;52.46;100319.16;2710273;88;21014;-63
2021/07/10 17:56:38;;;;;;;2.35;2.15;;;;;;;26.64;52.17;100325.39;2710466;88;21019;-65
2021/07/10 18:00:39;;;;;;;1.98;1.72;;;;;;;26.45;54.25;100331.96;2710237;88;21066;-65
2021/07/10 18:05:18;;;;;;;3.00;2.40;;;;;;;26.26;54.61;100332.54;2710167;87;21043;-64
2021/07/10 18:09:20;;;;;;;2.27;1.98;;;;;;;26.10;55.62;100327.97;2709894;88;21019;-65
2021/07/10 18:13:22;;;;;;;2.85;2.55;;;;;;;25.96;57.42;100327.30;2706073;87;21053;-64
2021/07/10 18:17:23;;;;;;;3.00;1.98;;;;;;;25.84;58.65;100336.73;2653424;89;21049;-65
2021/07/10 18:21:27;;;;;;;3.77;2.47;;;;;;;25.69;58.49;100333.02;2651520;88;21638;-65
2021/07/10 18:25:30;;;;;;;7.85;2.10;;;;;;;25.58;59.46;100328.34;2649913;89;21077;-67
2021/07/10 18:29:32;;;;;;;4.70;2.40;;;;;;;25.44;59.06;100333.87;2647417;89;21093;-66
2021/07/10 18:33:35;;;;;;;3.45;2.67;;;;;;;25.32;58.92;100326.11;2653401;89;21046;-66
2021/07/10 18:37:40;;;;;;;2.55;2.35;;;;;;;25.19;58.45;100328.42;2649069;90;21059;-67
2021/07/10 18:41:42;;;;;;;3.15;2.65;;;;;;;25.04;58.33;100332.30;2653745;88;21063;-66
2021/07/10 18:45:45;;;;;;;3.02;2.30;;;;;;;24.92;57.56;100338.16;2641868;89;21608;-65
2021/07/10 18:49:47;;;;;;;3.42;2.37;;;;;;;24.79;57.49;100339.09;2644474;89;21071;-64
2021/07/10 18:53:50;;;;;;;2.50;2.30;;;;;;;24.63;58.23;100344.47;2664700;89;21365;-64
2021/07/10 18:57:52;;;;;;;2.90;2.60;;;;;;;24.44;58.94;100347.61;2665069;89;21020;-66
2021/07/10 19:01:54;;;;;;;2.62;2.42;;;;;;;24.29;59.44;100357.41;2644737;89;21068;-66
2021/07/10 19:05:55;;;;;;;3.45;3.15;;;;;;;24.14;60.20;100353.58;2611922;91;21045;-68
2021/07/10 19:09:57;;;;;;;5.35;3.30;;;;;;;23.94;61.24;100355.80;2611707;91;21108;-66
2021/07/10 19:13:59;;;;;;;2.62;2.22;;;;;;;23.76;61.98;100359.19;2621192;89;21147;-65
2021/07/10 19:18:02;;;;;;;3.75;3.42;;;;;;;23.60;62.21;100352.33;2653754;89;21022;-66
2021/07/10 19:22:04;;;;;;;5.70;3.77;;;;;;;23.45;62.66;100352.53;2644189;89;21044;-64